Time;durP1;ratioP1;P1;durP2;ratioP2;P2;SDS_P1;SDS_P2;PMS_P1;PMS_P2;Temp;Humidity;BMP_temperature;BMP_pressure;BME280_temperature;BME280_humidity;BME280_pressure;Samples;Min_cycle;Max_cycle;Signal;HPM_P1;HPM_P2
2021/08/10 00:00:28;;;;;;;7.90;4.60;;;;;;;23.15;47.27;100263.78;4419518;32;20037;-69
2021/08/10 00:02:54;;;;;;;11.50;5.40;;;;;;;23.23;47.13;100262.66;4418930;32;20390;-69
2021/08/10 00:05:20;;;;;;;9.23;4.87;;;;;;;23.11;47.39;100264.06;4417623;32;20098;-68
2021/08/10 00:07:46;;;;;;;10.27;4.80;;;;;;;23.05;47.31;100262.59;4417335;32;20045;-68
2021/08/10 00:10:12;;;;;;;12.13;4.93;;;;;;;23.03;47.25;100262.34;4421972;32;20580;-68
2021/08/10 00:12:37;;;;;;;9.98;4.35;;;;;;;22.96;47.80;100265.78;4423625;32;20089;-69
2021/08/10 00:15:07;;;;;;;14.45;4.82;;;;;;;23.04;47.01;100258.94;4419266;32;20061;-69
2021/08/10 00:17:33;;;;;;;10.63;4.90;;;;;;;23.06;47.09;100264.13;4414845;32;20084;-69
2021/08/10 00:19:59;;;;;;;11.80;5.75;;;;;;;22.97;47.42;100262.38;4420506;32;20049;-69
2021/08/10 00:22:25;;;;;;;9.45;5.55;;;;;;;22.86;47.86;100268.22;4418317;32;20048;-69
2021/08/10 00:24:52;;;;;;;10.75;5.43;;;;;;;22.92;47.14;100271.81;4420873;32;20513;-69
2021/08/10 00:27:17;;;;;;;14.85;5.70;;;;;;;23.04;47.41;100272.50;4422992;32;20122;-69
2021/08/10 00:29:44;;;;;;;7.45;4.60;;;;;;;22.62;47.67;100270.25;4419925;32;20094;-69
2021/08/10 00:32:10;;;;;;;8.90;4.82;;;;;;;22.75;47.81;100264.66;4419972;32;20461;-69
2021/08/10 00:34:36;;;;;;;12.13;4.82;;;;;;;22.76;47.54;100278.47;4418926;32;20466;-69
2021/08/10 00:37:06;;;;;;;12.55;5.57;;;;;;;22.62;47.98;100273.91;4419418;32;20106;-69
2021/08/10 00:39:34;;;;;;;8.50;4.70;;;;;;;22.79;47.40;100268.81;4422496;32;20372;-69
2021/08/10 00:42:00;;;;;;;10.20;5.18;;;;;;;22.90;47.31;100262.97;4415485;32;20470;-69
2021/08/10 00:44:26;;;;;;;10.30;5.10;;;;;;;23.03;47.80;100262.34;4418157;32;20451;-69
2021/08/10 00:46:52;;;;;;;10.23;5.37;;;;;;;22.93;47.94;100264.00;4421467;32;20434;-69
2021/08/10 00:49:18;;;;;;;14.27;5.97;;;;;;;22.80;47.84;100258.13;4418551;32;20722;-69
2021/08/10 00:51:46;;;;;;;11.00;5.60;;;;;;;22.91;47.50;100258.78;4415764;32;20535;-69
2021/08/10 00:54:12;;;;;;;9.57;5.47;;;;;;;23.09;47.56;100265.94;4417866;32;20057;-69
2021/08/10 00:56:38;;;;;;;10.50;5.10;;;;;;;22.94;47.92;100271.28;4416280;32;20409;-69
2021/08/10 00:59:04;;;;;;;12.05;5.45;;;;;;;22.78;48.03;100269.34;4413498;32;20116;-69
2021/08/10 01:01:31;;;;;;;9.00;4.82;;;;;;;22.76;47.52;100267.00;4416812;32;20402;-69
2021/08/10 01:03:57;;;;;;;10.52;5.22;;;;;;;22.63;47.96;100266.84;4417817;32;20072;-69
2021/08/10 01:06:38;;;;;;;8.20;4.80;;;;;;;22.80;47.38;100266.72;4417555;32;20073;-69
2021/08/10 01:09:09;;;;;;;10.60;4.87;;;;;;;23.11;47.00;100264.06;4414898;32;20130;-69
2021/08/10 01:14:37;;;;;;;13.82;5.60;;;;;;;23.51;45.99;100259.50;3979074;32;15150835;-69
2021/08/10 01:17:10;;;;;;;9.98;5.12;;;;;;;23.51;45.99;100259.50;4431356;32;20078;-69
2021/08/10 01:22:17;;;;;;;12.02;5.80;;;;;;;23.66;46.09;100265.59;3982312;32;15023557;-69
2021/08/10 01:24:49;;;;;;;10.65;5.15;;;;;;;23.66;46.09;100265.59;4437356;32;20045;-69
2021/08/10 01:32:48;;;;;;;14.43;6.07;;;;;;;23.83;45.82;100266.16;3980982;32;15027277;-69
2021/08/10 01:35:19;;;;;;;10.02;4.80;;;;;;;23.83;45.82;100266.16;4434866;32;20049;-69
2021/08/10 01:37:50;;;;;;;12.90;5.75;;;;;;;23.50;46.60;100257.94;4435177;32;20099;-69
2021/08/10 01:40:17;;;;;;;10.15;5.22;;;;;;;23.63;46.08;100252.31;4435964;32;20033;-70
2021/08/10 01:42:43;;;;;;;12.00;5.55;;;;;;;23.31;46.31;100249.28;4435255;32;20105;-70
2021/08/10 01:45:10;;;;;;;12.30;5.55;;;;;;;23.22;46.68;100252.47;4433530;32;20029;-70
2021/08/10 01:47:39;;;;;;;11.43;5.53;;;;;;;23.26;46.41;100241.50;4433085;32;20068;-70
2021/08/10 01:50:05;;;;;;;14.25;5.90;;;;;;;23.23;47.01;100254.06;4434181;32;20030;-70
2021/08/10 01:52:34;;;;;;;11.50;5.00;;;;;;;23.14;47.24;100253.63;4432882;32;20073;-70
2021/08/10 01:55:00;;;;;;;9.35;5.72;;;;;;;23.14;47.18;100239.28;4433485;32;20069;-69
2021/08/10 01:57:28;;;;;;;11.20;4.87;;;;;;;23.08;46.58;100247.94;4433613;32;20035;-69
2021/08/10 01:59:55;;;;;;;10.35;5.53;;;;;;;23.20;46.20;100245.72;4435271;32;20526;-69
2021/08/10 02:02:21;;;;;;;13.65;5.47;;;;;;;23.43;46.36;100242.09;4431025;32;20549;-70
2021/08/10 02:04:50;;;;;;;10.35;5.12;;;;;;;23.47;46.60;100247.53;4428731;32;20154;-69
2021/08/10 02:07:18;;;;;;;9.48;4.72;;;;;;;23.61;46.18;100254.94;4433262;32;20431;-69
2021/08/10 02:09:44;;;;;;;10.80;5.28;;;;;;;23.48;45.75;100252.72;4430687;32;20056;-70
2021/08/10 02:12:11;;;;;;;9.35;4.70;;;;;;;23.43;46.37;100264.28;4433466;32;20073;-69
2021/08/10 02:14:38;;;;;;;10.32;5.55;;;;;;;23.59;45.73;100262.56;4435213;32;20030;-70
2021/08/10 02:17:06;;;;;;;10.00;4.93;;;;;;;23.77;45.47;100262.59;4433698;32;20053;-69
2021/08/10 02:19:35;;;;;;;12.57;5.00;;;;;;;23.82;45.23;100258.88;4435524;32;20308;-69
2021/08/10 02:22:05;;;;;;;7.12;4.62;;;;;;;23.72;45.32;100263.44;4436974;32;20029;-69
2021/08/10 02:24:38;;;;;;;8.73;4.22;;;;;;;23.72;45.18;100265.53;4434104;32;20100;-69
2021/08/10 02:27:07;;;;;;;11.73;5.28;;;;;;;23.82;44.66;100263.84;4431785;32;20073;-70
2021/08/10 02:29:38;;;;;;;10.27;5.00;;;;;;;24.02;44.77;100264.09;4435723;32;20056;-70
2021/08/10 02:32:05;;;;;;;10.77;5.70;;;;;;;24.11;44.65;100269.47;4432399;32;20037;-69
2021/08/10 02:34:31;;;;;;;14.10;5.93;;;;;;;23.98;44.90;100269.41;4432889;32;20038;-70
2021/08/10 02:36:59;;;;;;;13.40;4.85;;;;;;;24.03;44.92;100262.81;4433330;32;20464;-70
2021/08/10 02:39:26;;;;;;;9.55;5.00;;;;;;;24.18;44.63;100260.25;4432732;32;20052;-70
2021/08/10 02:41:54;;;;;;;10.32;4.47;;;;;;;24.14;45.21;100259.75;4431910;32;20038;-70
2021/08/10 02:44:21;;;;;;;9.30;4.90;;;;;;;24.34;45.09;100253.47;4423039;32;20490;-70
2021/08/10 02:46:47;;;;;;;10.40;5.25;;;;;;;24.32;44.88;100256.09;4422231;32;20403;-69
2021/08/10 02:49:13;;;;;;;9.73;5.07;;;;;;;24.32;44.33;100264.72;4420072;32;20472;-69
2021/08/10 02:51:39;;;;;;;8.57;4.70;;;;;;;24.37;44.67;100261.00;4424527;32;20090;-69
2021/08/10 02:54:05;;;;;;;11.30;5.20;;;;;;;24.21;44.71;100256.25;4418876;32;20507;-69
2021/08/10 02:56:35;;;;;;;10.43;4.78;;;;;;;24.29;44.81;100250.66;4424721;32;20663;-69
2021/08/10 03:01:42;;;;;;;11.95;4.95;;;;;;;24.69;43.83;100258.16;3996593;31;15017008;-70
2021/08/10 03:04:09;;;;;;;11.60;4.72;;;;;;;24.84;44.12;100253.47;4454396;32;20101;-70
2021/08/10 03:06:35;;;;;;;9.23;4.62;;;;;;;24.78;44.14;100252.78;4459452;32;20132;-69
2021/08/10 03:09:02;;;;;;;9.63;4.90;;;;;;;24.84;43.69;100259.22;4453906;32;20048;-69
2021/08/10 03:11:33;;;;;;;10.95;4.82;;;;;;;24.61;44.46;100254.34;4457328;32;20086;-69
2021/08/10 03:14:01;;;;;;;10.05;5.07;;;;;;;24.96;43.86;100254.81;4457161;32;20194;-69
2021/08/10 03:16:30;;;;;;;13.82;5.07;;;;;;;25.11;44.38;100263.72;4452140;32;20057;-69
2021/08/10 03:18:59;;;;;;;10.13;4.72;;;;;;;25.21;44.11;100258.28;4457395;32;20137;-69
2021/08/10 03:21:26;;;;;;;12.20;5.00;;;;;;;25.29;43.75;100265.75;4456887;32;20518;-69
2021/08/10 03:23:54;;;;;;;13.57;5.00;;;;;;;25.14;43.97;100273.34;4457720;32;20021;-69
2021/08/10 03:26:22;;;;;;;11.23;4.85;;;;;;;25.30;44.13;100261.53;4458352;32;20084;-69
2021/08/10 03:28:52;;;;;;;8.65;4.60;;;;;;;25.30;43.18;100266.50;4457592;32;20068;-69
2021/08/10 03:31:19;;;;;;;9.70;4.85;;;;;;;25.22;43.97;100265.62;4454918;32;20092;-69
2021/08/10 03:33:46;;;;;;;10.65;4.95;;;;;;;25.26;43.35;100271.81;4458057;32;20056;-68
2021/08/10 03:36:13;;;;;;;9.95;5.93;;;;;;;25.33;43.89;100268.31;4448306;32;20068;-68
2021/08/10 03:38:40;;;;;;;11.25;4.78;;;;;;;25.35;43.32;100269.31;4456388;32;20069;-69
2021/08/10 03:41:06;;;;;;;11.45;4.85;;;;;;;25.48;43.58;100276.41;4451854;32;20454;-68
2021/08/10 03:43:35;;;;;;;11.20;5.03;;;;;;;25.49;43.52;100275.84;4459843;32;20060;-68
2021/08/10 03:46:04;;;;;;;9.48;4.40;;;;;;;25.40;43.08;100282.06;4452149;32;20206;-69
2021/08/10 03:48:37;;;;;;;7.57;4.70;;;;;;;25.57;43.30;100273.88;4452319;32;20456;-68
2021/08/10 03:51:04;;;;;;;10.65;5.00;;;;;;;25.59;42.99;100262.56;4455166;32;20033;-68
2021/08/10 03:53:31;;;;;;;14.02;4.75;;;;;;;25.58;42.93;100263.87;4456566;32;20091;-68
2021/08/10 03:55:58;;;;;;;10.43;5.03;;;;;;;25.36;43.13;100258.56;4451948;32;20034;-69
2021/08/10 03:58:26;;;;;;;11.82;4.95;;;;;;;25.59;43.24;100261.78;4455080;32;20045;-68
2021/08/10 04:00:54;;;;;;;9.13;4.68;;;;;;;25.29;43.44;100274.37;4452688;32;20049;-68
2021/08/10 04:03:21;;;;;;;12.73;4.87;;;;;;;25.53;43.22;100267.66;4460230;32;20073;-68
2021/08/10 04:05:49;;;;;;;8.50;4.90;;;;;;;25.21;43.46;100264.84;4454888;32;20413;-68
2021/08/10 04:08:15;;;;;;;8.82;4.97;;;;;;;25.34;43.76;100264.88;4456877;32;20063;-70
2021/08/10 04:10:46;;;;;;;9.25;4.70;;;;;;;25.47;44.04;100272.78;4457316;32;20457;-70
2021/08/10 04:13:13;;;;;;;9.60;4.62;;;;;;;25.64;43.64;100269.56;4445441;32;20036;-70
2021/08/10 04:15:43;;;;;;;10.45;4.90;;;;;;;25.44;44.02;100267.31;4442916;32;20068;-70
2021/08/10 04:18:18;;;;;;;12.05;5.40;;;;;;;25.66;43.84;100272.66;4442835;32;20056;-70
2021/08/10 04:20:48;;;;;;;7.75;4.35;;;;;;;25.70;43.34;100278.84;4432294;32;20068;-70
2021/08/10 04:23:15;;;;;;;7.95;4.93;;;;;;;25.68;43.12;100265.00;4445515;32;20081;-70
2021/08/10 04:25:41;;;;;;;7.28;4.32;;;;;;;25.59;43.18;100273.31;4440751;32;20053;-70
2021/08/10 04:28:07;;;;;;;10.43;4.97;;;;;;;25.47;43.88;100269.09;4442022;32;20029;-70
2021/08/10 04:30:33;;;;;;;10.55;4.82;;;;;;;25.42;43.80;100275.75;4438548;32;20037;-70
2021/08/10 04:32:58;;;;;;;9.48;4.85;;;;;;;25.47;43.54;100277.75;4448247;32;20473;-70
2021/08/10 04:35:25;;;;;;;13.43;4.87;;;;;;;25.59;43.83;100274.09;4448971;32;20037;-70
2021/08/10 04:37:51;;;;;;;10.60;4.50;;;;;;;25.49;43.72;100270.09;4447568;32;20473;-70
2021/08/10 04:40:17;;;;;;;13.32;4.80;;;;;;;25.23;43.77;100272.94;4446852;32;20049;-70
2021/08/10 04:42:43;;;;;;;9.75;4.47;;;;;;;25.41;43.73;100272.09;4444534;32;20053;-70
2021/08/10 04:45:10;;;;;;;13.68;5.03;;;;;;;25.53;43.80;100276.31;4443633;32;20316;-68
2021/08/10 04:47:35;;;;;;;10.52;4.90;;;;;;;25.10;45.47;100267.91;4443753;32;20067;-69
2021/08/10 04:50:01;;;;;;;8.70;3.95;;;;;;;24.60;48.04;100279.47;4443957;32;20076;-69
2021/08/10 04:52:27;;;;;;;10.38;4.62;;;;;;;24.31;48.22;100283.31;4447955;32;20172;-69
2021/08/10 04:54:52;;;;;;;11.93;5.45;;;;;;;24.18;48.23;100274.63;4430348;32;20672;-69
2021/08/10 04:57:18;;;;;;;11.43;6.30;;;;;;;24.31;48.20;100282.53;4449549;32;20461;-69
2021/08/10 04:59:44;;;;;;;8.45;5.03;;;;;;;24.25;48.17;100288.37;4446322;32;20072;-68
2021/08/10 05:02:09;;;;;;;13.90;5.35;;;;;;;24.07;48.95;100280.50;4441876;32;20767;-69
2021/08/10 05:04:35;;;;;;;17.12;5.10;;;;;;;24.15;48.99;100287.22;4451863;32;20037;-68
2021/08/10 05:07:02;;;;;;;13.38;5.37;;;;;;;24.10;49.17;100295.88;4442989;32;20084;-69
2021/08/10 05:09:30;;;;;;;14.30;5.62;;;;;;;24.26;49.24;100283.38;4442903;32;20410;-68
2021/08/10 05:11:57;;;;;;;14.05;5.45;;;;;;;24.27;49.28;100287.81;4438705;32;20037;-69
2021/08/10 05:14:23;;;;;;;13.45;6.07;;;;;;;24.25;49.26;100287.59;4447421;32;20559;-69
2021/08/10 05:16:49;;;;;;;11.38;5.30;;;;;;;24.42;49.21;100293.88;4443334;32;20095;-69
2021/08/10 05:19:15;;;;;;;8.10;5.50;;;;;;;24.48;49.23;100291.72;4449762;32;20041;-69
2021/08/10 05:21:41;;;;;;;17.30;6.00;;;;;;;24.56;49.20;100304.13;4444067;32;20109;-67
2021/08/10 05:24:06;;;;;;;14.98;5.35;;;;;;;24.67;48.66;100293.25;4440229;32;20092;-67
2021/08/10 05:26:32;;;;;;;12.10;5.20;;;;;;;24.75;48.71;100302.00;4439101;32;20049;-69
2021/08/10 05:29:00;;;;;;;9.98;5.55;;;;;;;24.55;48.96;100296.81;4449825;32;20097;-69
2021/08/10 05:31:25;;;;;;;9.80;5.40;;;;;;;24.62;48.88;100302.72;4439665;32;20030;-69
2021/08/10 05:33:51;;;;;;;15.32;5.47;;;;;;;24.72;48.67;100306.78;4445320;32;20088;-68
2021/08/10 05:36:19;;;;;;;12.70;5.95;;;;;;;24.87;48.44;100309.94;4443987;32;20445;-67
2021/08/10 05:38:49;;;;;;;10.82;5.45;;;;;;;24.89;48.35;100318.03;4444670;32;20112;-68
2021/08/10 05:41:15;;;;;;;12.48;6.25;;;;;;;24.84;48.64;100316.78;4448243;32;20462;-69
2021/08/10 05:43:41;;;;;;;14.23;6.22;;;;;;;25.10;48.33;100305.34;4445587;32;20071;-68
2021/08/10 05:46:07;;;;;;;13.50;5.80;;;;;;;24.87;48.42;100312.03;4443473;32;20441;-68
2021/08/10 05:48:33;;;;;;;14.25;6.20;;;;;;;24.94;48.31;100317.94;4451313;32;20107;-69
2021/08/10 05:51:00;;;;;;;14.05;5.85;;;;;;;25.03;48.21;100308.88;4439257;32;20438;-68
2021/08/10 05:53:26;;;;;;;10.95;5.60;;;;;;;25.20;48.20;100312.25;4446350;32;20052;-68
2021/08/10 05:55:51;;;;;;;14.02;5.93;;;;;;;25.19;48.25;100319.31;4444884;32;20093;-68
2021/08/10 05:58:17;;;;;;;9.45;5.62;;;;;;;25.31;48.69;100326.47;4450169;32;20029;-68
2021/08/10 06:00:43;;;;;;;13.35;6.00;;;;;;;25.20;47.57;100312.25;4444494;32;20038;-68
2021/08/10 06:03:09;;;;;;;12.93;5.53;;;;;;;25.00;48.30;100318.59;4446741;32;20134;-68
2021/08/10 06:05:35;;;;;;;10.65;5.50;;;;;;;25.00;48.47;100317.81;4439217;32;20107;-68
2021/08/10 06:08:01;;;;;;;12.85;4.87;;;;;;;25.25;48.12;100320.00;4435881;32;20063;-68
2021/08/10 06:10:27;;;;;;;10.70;5.00;;;;;;;24.96;48.08;100314.50;4441262;32;20073;-69
2021/08/10 06:12:53;;;;;;;12.73;5.65;;;;;;;25.03;48.50;100314.63;4444611;32;20059;-69
2021/08/10 06:15:19;;;;;;;9.10;5.70;;;;;;;25.22;48.27;100312.47;4441246;32;20472;-69
2021/08/10 06:17:45;;;;;;;10.38;5.60;;;;;;;25.41;48.10;100317.41;4446262;32;20501;-68
2021/08/10 06:20:11;;;;;;;13.25;4.95;;;;;;;25.43;47.42;100311.87;4445067;32;20072;-69
2021/08/10 06:22:36;;;;;;;10.02;5.47;;;;;;;25.45;47.25;100323.59;4446432;32;20036;-69
2021/08/10 06:25:02;;;;;;;9.75;5.07;;;;;;;25.40;47.58;100316.62;4443417;32;20391;-69
2021/08/10 06:27:28;;;;;;;10.23;5.97;;;;;;;25.57;47.10;100311.34;4448150;32;20036;-69
2021/08/10 06:29:54;;;;;;;11.12;5.28;;;;;;;25.59;47.17;100322.31;4443601;32;20117;-69
2021/08/10 06:32:19;;;;;;;12.15;6.50;;;;;;;25.57;47.42;100319.19;4442370;32;20100;-69
2021/08/10 06:34:45;;;;;;;13.27;6.15;;;;;;;25.43;47.40;100321.28;4441023;32;20722;-69
2021/08/10 06:37:11;;;;;;;10.25;6.20;;;;;;;25.59;47.40;100322.31;4440470;32;20096;-69
2021/08/10 06:39:36;;;;;;;9.75;5.80;;;;;;;25.71;47.77;100335.19;4437288;32;20098;-69
2021/08/10 06:42:03;;;;;;;9.60;5.35;;;;;;;25.66;47.67;100330.28;4445721;32;20033;-69
2021/08/10 06:44:28;;;;;;;10.63;6.05;;;;;;;25.71;47.25;100329.41;4442616;32;20080;-69
2021/08/10 06:46:54;;;;;;;11.50;6.75;;;;;;;25.74;47.66;100331.19;4443823;32;20068;-69
2021/08/10 06:49:20;;;;;;;11.25;7.00;;;;;;;25.85;47.74;100333.84;4441568;32;20431;-69
2021/08/10 06:51:46;;;;;;;15.95;7.20;;;;;;;26.11;47.20;100333.88;4437680;32;20080;-69
2021/08/10 06:54:13;;;;;;;11.05;5.97;;;;;;;25.98;47.52;100328.13;4442197;32;20053;-68
2021/08/10 06:56:39;;;;;;;9.48;5.50;;;;;;;25.92;46.86;100351.25;4439558;32;20073;-68
2021/08/10 06:59:06;;;;;;;13.98;6.70;;;;;;;26.12;47.30;100350.62;4443679;32;20076;-68
2021/08/10 07:01:32;;;;;;;13.48;6.70;;;;;;;26.34;47.00;100346.47;4439105;32;20057;-68
2021/08/10 07:03:58;;;;;;;9.32;5.78;;;;;;;26.56;46.81;100354.63;4443904;32;20030;-68
2021/08/10 07:06:23;;;;;;;18.12;7.37;;;;;;;26.50;45.63;100353.97;4443439;32;20108;-68
2021/08/10 07:08:53;;;;;;;10.55;5.85;;;;;;;26.60;46.41;100352.94;4444153;32;20068;-68
2021/08/10 07:11:19;;;;;;;10.82;6.43;;;;;;;26.73;45.93;100346.41;4445627;32;20432;-68
2021/08/10 07:13:45;;;;;;;15.88;6.30;;;;;;;26.81;46.00;100353.03;4447018;32;20017;-68
2021/08/10 07:16:10;;;;;;;12.45;6.10;;;;;;;26.96;44.84;100364.72;4434829;32;20446;-67
2021/08/10 07:18:38;;;;;;;19.77;7.30;;;;;;;27.05;45.08;100365.03;4444715;32;20049;-67
2021/08/10 07:21:04;;;;;;;17.60;7.43;;;;;;;26.90;45.39;100364.88;4440932;32;20428;-68
2021/08/10 07:23:30;;;;;;;15.18;7.50;;;;;;;26.94;45.02;100371.06;4446961;32;20102;-66
2021/08/10 07:25:56;;;;;;;11.38;6.90;;;;;;;26.98;44.99;100373.63;4442890;32;20415;-66
2021/08/10 07:28:22;;;;;;;9.70;6.53;;;;;;;27.13;45.27;100376.66;4443248;32;20498;-66
2021/08/10 07:30:48;;;;;;;10.32;6.18;;;;;;;27.25;45.57;100380.09;4445042;32;20611;-66
2021/08/10 07:33:14;;;;;;;11.63;6.43;;;;;;;27.54;43.96;100385.34;4439206;32;20068;-66
2021/08/10 07:35:40;;;;;;;13.38;6.68;;;;;;;27.66;44.04;100380.06;4439285;32;20406;-66
2021/08/10 07:38:06;;;;;;;10.85;7.12;;;;;;;27.89;43.99;100387.59;4440928;32;20065;-66
2021/08/10 07:40:32;;;;;;;13.50;7.07;;;;;;;28.07;43.75;100397.38;4443511;32;20103;-66
2021/08/10 07:42:58;;;;;;;13.62;7.30;;;;;;;28.12;42.83;100388.53;4448675;32;20048;-66
2021/08/10 07:45:24;;;;;;;17.62;8.02;;;;;;;28.33;43.41;100397.13;4444440;32;20033;-66
2021/08/10 07:47:50;;;;;;;14.52;7.18;;;;;;;28.70;42.41;100400.22;4433157;32;20084;-67
2021/08/10 07:50:19;;;;;;;8.85;5.72;;;;;;;28.74;41.49;100406.41;4452376;32;20174;-67
2021/08/10 07:52:47;;;;;;;6.70;5.60;;;;;;;28.93;41.24;100406.13;4447055;32;20084;-66
2021/08/10 07:55:13;;;;;;;7.00;5.47;;;;;;;28.32;40.88;100404.25;4449503;32;20049;-66
2021/08/10 07:57:41;;;;;;;6.50;5.45;;;;;;;28.50;40.77;100411.91;4438848;32;20158;-66
2021/08/10 08:00:08;;;;;;;7.68;5.20;;;;;;;28.08;40.77;100407.59;4448495;32;20151;-66
2021/08/10 08:02:33;;;;;;;9.00;5.43;;;;;;;27.80;41.19;100414.13;4445325;32;20126;-66
2021/08/10 08:04:59;;;;;;;9.20;5.35;;;;;;;27.52;42.19;100414.03;4444445;32;20446;-66
2021/08/10 08:07:25;;;;;;;5.85;5.20;;;;;;;27.10;42.74;100412.47;4439841;32;20094;-66
2021/08/10 08:09:50;;;;;;;6.80;5.60;;;;;;;27.57;42.52;100418.12;4453693;32;20064;-66
2021/08/10 08:12:16;;;;;;;6.90;5.32;;;;;;;27.51;42.50;100415.41;4444419;32;20106;-66
2021/08/10 08:14:44;;;;;;;8.50;5.62;;;;;;;27.77;42.85;100420.25;4447018;32;20408;-66
2021/08/10 08:17:12;;;;;;;9.48;6.07;;;;;;;27.52;42.21;100416.94;4449247;32;20037;-66
2021/08/10 08:19:37;;;;;;;11.50;5.87;;;;;;;27.98;42.30;100412.34;4446588;32;20065;-66
2021/08/10 08:22:04;;;;;;;9.77;6.12;;;;;;;28.13;42.16;100421.88;4441630;32;20120;-66
2021/08/10 08:24:30;;;;;;;8.70;5.43;;;;;;;28.31;41.19;100428.75;4444667;32;20040;-66
2021/08/10 08:26:55;;;;;;;6.78;4.45;;;;;;;28.61;42.04;100432.63;4448627;32;20136;-66
2021/08/10 08:29:21;;;;;;;8.13;4.68;;;;;;;28.76;41.19;100434.81;4445989;32;20111;-66
2021/08/10 08:31:47;;;;;;;6.78;4.60;;;;;;;28.86;40.41;100444.50;4448400;32;20107;-66
2021/08/10 08:34:13;;;;;;;5.68;4.93;;;;;;;29.27;40.08;100449.31;4444287;32;20101;-67
2021/08/10 08:36:38;;;;;;;7.00;4.47;;;;;;;29.35;39.16;100441.38;4441514;32;20037;-66
2021/08/10 08:39:04;;;;;;;6.65;3.67;;;;;;;29.70;38.76;100446.31;4442697;32;20040;-67
2021/08/10 08:41:30;;;;;;;7.68;3.78;;;;;;;30.01;37.51;100442.03;4448323;32;20130;-67
2021/08/10 08:43:55;;;;;;;7.97;3.90;;;;;;;30.16;37.65;100439.12;4448807;32;20102;-67
2021/08/10 08:46:23;;;;;;;6.68;3.42;;;;;;;29.77;37.63;100452.12;4445449;32;20037;-67
2021/08/10 08:48:50;;;;;;;5.25;3.75;;;;;;;30.14;36.97;100444.72;4439934;32;20055;-67
2021/08/10 08:51:19;;;;;;;6.35;4.30;;;;;;;29.48;37.81;100438.34;4441448;32;20068;-67
2021/08/10 08:53:51;;;;;;;6.20;3.47;;;;;;;28.54;39.20;100453.63;4443222;32;20414;-67
2021/08/10 08:56:20;;;;;;;3.55;3.08;;;;;;;28.42;39.48;100452.38;4449318;32;20521;-67
2021/08/10 08:58:47;;;;;;;3.42;3.12;;;;;;;28.78;39.29;100449.50;4438587;32;20064;-67
2021/08/10 09:01:13;;;;;;;4.07;3.35;;;;;;;28.96;39.09;100445.53;4447859;32;20529;-68
2021/08/10 09:03:40;;;;;;;8.38;3.80;;;;;;;29.02;37.90;100449.00;4447514;32;20063;-68
2021/08/10 09:06:06;;;;;;;4.95;3.50;;;;;;;29.33;37.97;100453.59;4444569;32;20091;-68
2021/08/10 09:08:39;;;;;;;5.22;3.10;;;;;;;29.30;37.71;100442.34;4444317;32;20060;-68
2021/08/10 09:11:07;;;;;;;5.20;3.15;;;;;;;29.85;36.83;100449.97;4445917;32;20474;-68
2021/08/10 09:13:38;;;;;;;3.50;2.45;;;;;;;30.41;37.05;100442.97;4449569;32;20478;-68
2021/08/10 09:16:06;;;;;;;2.95;2.50;;;;;;;30.89;35.28;100452.53;4450760;32;20160;-67
2021/08/10 09:18:36;;;;;;;4.50;3.72;;;;;;;30.08;36.07;100459.44;4446431;32;20065;-68
2021/08/10 09:26:23;;;;;;;2.70;2.22;;;;;;;29.15;37.85;100465.50;3982231;32;15024138;-69
2021/08/10 09:28:56;;;;;;;3.10;2.50;;;;;;;28.61;38.90;100469.50;4427368;32;20088;-68
2021/08/10 09:34:25;;;;;;;4.97;2.47;;;;;;;29.83;36.34;100467.19;3982900;32;15024032;-70
2021/08/10 09:36:52;;;;;;;3.00;2.40;;;;;;;29.83;36.34;100467.19;4431622;32;20021;-68
2021/08/10 09:39:36;;;;;;;3.90;2.05;;;;;;;29.29;37.75;100458.22;4428638;32;20038;-68
2021/08/10 09:42:05;;;;;;;3.87;2.50;;;;;;;29.51;37.32;100471.97;4428442;32;20071;-69
2021/08/10 09:44:32;;;;;;;2.37;2.00;;;;;;;30.08;36.48;100458.66;4427031;32;20037;-68
2021/08/10 09:46:58;;;;;;;5.35;2.60;;;;;;;30.26;35.61;100467.00;4429267;32;20056;-68
2021/08/10 09:49:42;;;;;;;3.22;1.90;;;;;;;30.83;35.69;100466.50;4433224;32;20076;-68
2021/08/10 09:52:22;;;;;;;5.07;2.15;;;;;;;30.95;34.28;100467.63;4430293;32;20053;-69
2021/08/10 09:54:47;;;;;;;2.25;2.00;;;;;;;30.87;33.88;100463.94;4431965;32;20135;-69
2021/08/10 09:57:13;;;;;;;3.53;1.67;;;;;;;30.91;34.26;100470.91;4428856;32;20053;-68
2021/08/10 09:59:42;;;;;;;3.30;2.00;;;;;;;31.11;33.75;100469.09;4431635;32;20109;-68
2021/08/10 10:02:23;;;;;;;3.42;1.80;;;;;;;31.15;33.55;100463.63;4429627;32;20053;-70
2021/08/10 10:04:51;;;;;;;3.50;1.90;;;;;;;31.59;32.53;100471.34;4433256;32;20042;-69
2021/08/10 10:07:17;;;;;;;3.80;1.77;;;;;;;31.71;32.20;100474.53;4428793;32;20073;-68
2021/08/10 10:09:43;;;;;;;4.40;1.98;;;;;;;31.68;32.55;100470.69;4432637;32;20064;-68
2021/08/10 10:12:10;;;;;;;4.25;1.90;;;;;;;32.24;31.41;100469.84;4434316;32;20585;-68
2021/08/10 10:14:38;;;;;;;2.30;1.58;;;;;;;33.01;30.20;100473.50;4430015;32;20038;-70
2021/08/10 10:17:05;;;;;;;3.00;1.30;;;;;;;33.36;29.32;100467.00;4431542;32;20100;-69
2021/08/10 10:19:36;;;;;;;3.65;1.40;;;;;;;33.95;28.36;100472.53;4429683;32;20063;-68
2021/08/10 10:22:04;;;;;;;4.95;1.52;;;;;;;34.22;28.19;100482.00;4430688;32;20037;-68
2021/08/10 10:24:38;;;;;;;3.00;1.70;;;;;;;34.53;27.86;100482.22;4430484;32;20066;-68
2021/08/10 10:27:06;;;;;;;3.78;1.70;;;;;;;34.89;27.63;100470.44;4431894;32;20037;-68
2021/08/10 10:29:32;;;;;;;3.30;1.48;;;;;;;35.33;26.34;100477.50;4432536;32;20042;-68
2021/08/10 10:31:59;;;;;;;2.85;1.33;;;;;;;34.98;26.78;100484.28;4432146;32;20073;-68
2021/08/10 10:34:26;;;;;;;3.35;1.40;;;;;;;34.12;27.22;100484.87;4432857;32;20081;-68
2021/08/10 10:36:52;;;;;;;3.92;1.35;;;;;;;33.68;28.03;100489.31;4432357;32;20055;-68
2021/08/10 10:39:37;;;;;;;4.25;1.33;;;;;;;33.44;28.52;100499.00;4432293;32;20042;-68
2021/08/10 10:42:07;;;;;;;5.15;1.60;;;;;;;33.29;28.47;100491.22;4433035;32;20091;-68
2021/08/10 10:52:37;;;;;;;2.92;1.45;;;;;;;34.63;27.32;100495.47;3978398;32;15023568;-69
2021/08/10 10:55:05;;;;;;;4.90;1.48;;;;;;;34.63;27.32;100495.47;4433912;32;20198;-69
2021/08/10 11:02:42;;;;;;;3.78;1.37;;;;;;;34.26;27.30;100509.38;3983088;32;15024113;-68
2021/08/10 11:07:47;;;;;;;6.93;1.52;;;;;;;33.91;27.46;100493.44;3954198;32;15723477;-68
2021/08/10 11:12:50;;;;;;;4.45;1.27;;;;;;;33.86;27.38;100508.28;3968556;32;15026176;-69
2021/08/10 11:15:18;;;;;;;3.83;1.48;;;;;;;33.86;27.38;100508.28;4423719;32;20347;-70
2021/08/10 11:20:47;;;;;;;4.97;1.67;;;;;;;33.46;27.94;100507.91;4003080;31;15014508;-70
2021/08/10 11:28:50;;;;;;;2.20;1.50;;;;;;;34.61;27.29;100521.66;3982765;32;15023177;-68
2021/08/10 11:31:37;;;;;;;3.33;1.30;;;;;;;34.61;27.29;100521.66;4437486;32;20045;-68
2021/08/10 11:34:24;;;;;;;2.12;1.30;;;;;;;34.38;27.07;100512.50;4436108;32;20096;-69
2021/08/10 11:37:26;;;;;;;4.22;1.27;;;;;;;34.24;26.92;100526.00;4433902;32;20041;-68
2021/08/10 11:40:03;;;;;;;3.08;1.30;;;;;;;34.73;26.31;100516.75;4437269;32;20868;-69
2021/08/10 11:42:28;;;;;;;2.47;1.23;;;;;;;35.05;26.13;100528.00;4437083;32;20430;-69
2021/08/10 11:44:57;;;;;;;5.60;1.33;;;;;;;35.06;25.19;100532.47;4433647;32;20046;-69
2021/08/10 11:47:22;;;;;;;2.75;1.05;;;;;;;35.63;24.91;100523.62;4433787;32;20183;-69
2021/08/10 11:49:53;;;;;;;2.10;0.80;;;;;;;35.81;23.80;100512.50;4434679;32;20081;-69
2021/08/10 11:52:19;;;;;;;3.35;1.10;;;;;;;36.88;21.86;100515.03;4437291;32;20101;-69
2021/08/10 11:54:56;;;;;;;2.95;1.10;;;;;;;35.57;24.29;100519.47;4435526;32;20075;-68
2021/08/10 11:57:23;;;;;;;4.40;1.50;;;;;;;34.97;25.35;100515.69;4438611;32;20176;-69
2021/08/10 11:59:51;;;;;;;1.85;1.02;;;;;;;34.62;25.36;100531.94;4433419;32;20403;-69
2021/08/10 12:02:16;;;;;;;2.45;1.30;;;;;;;34.21;25.93;100527.97;4432118;32;20073;-70
2021/08/10 12:04:42;;;;;;;1.80;1.40;;;;;;;34.45;25.96;100525.47;4435227;32;20118;-69
2021/08/10 12:07:08;;;;;;;2.62;1.48;;;;;;;35.54;24.84;100524.44;4437744;32;20045;-70
2021/08/10 12:09:36;;;;;;;2.35;1.48;;;;;;;35.52;24.55;100518.41;4437322;32;20037;-70